Time;durP1;ratioP1;P1;durP2;ratioP2;P2;SDS_P1;SDS_P2;PMS_P1;PMS_P2;Temp;Humidity;BMP_temperature;BMP_pressure;BME280_temperature;BME280_humidity;BME280_pressure;Samples;Min_cycle;Max_cycle;Signal;HPM_P1;HPM_P2
2024/03/08 00:00:32;;;;;;;1.23;0.90;;;22.90;54.10;;;;;;5099148;28;20099;-55
2024/03/08 00:03:00;;;;;;;6.22;1.15;;;22.90;54.00;;;;;;5110332;28;20426;-53
2024/03/08 00:05:27;;;;;;;2.78;0.98;;;23.00;54.10;;;;;;5108768;28;20554;-57
2024/03/08 00:07:54;;;;;;;4.00;0.90;;;22.80;54.00;;;;;;5105779;28;20127;-59
2024/03/08 00:10:20;;;;;;;4.80;0.95;;;22.60;54.50;;;;;;5098160;28;20069;-59
2024/03/08 00:12:47;;;;;;;2.78;0.90;;;22.50;55.00;;;;;;5110007;28;20079;-59
2024/03/08 00:15:17;;;;;;;3.38;0.73;;;22.60;54.90;;;;;;5112049;28;20072;-60
2024/03/08 00:17:44;;;;;;;1.50;0.70;;;22.60;54.40;;;;;;5114354;28;20076;-59
2024/03/08 00:20:11;;;;;;;4.55;0.70;;;22.60;54.30;;;;;;5104827;28;20184;-56
2024/03/08 00:22:38;;;;;;;2.78;0.73;;;22.30;54.60;;;;;;5104320;28;20202;-59
2024/03/08 00:25:09;;;;;;;2.00;0.80;;;22.20;55.00;;;;;;5091794;28;20163;-53
2024/03/08 00:27:36;;;;;;;2.53;0.90;;;22.10;55.00;;;;;;5112509;28;20076;-56
2024/03/08 00:30:03;;;;;;;3.13;0.60;;;21.90;55.10;;;;;;5110338;28;20072;-57
2024/03/08 00:32:30;;;;;;;4.45;0.80;;;21.80;55.20;;;;;;5109288;28;20080;-56
2024/03/08 00:34:56;;;;;;;3.33;0.80;;;21.80;55.10;;;;;;5109588;28;20544;-59
2024/03/08 00:37:24;;;;;;;0.80;0.60;;;21.80;55.10;;;;;;5103804;28;20072;-55
2024/03/08 00:39:52;;;;;;;2.60;0.77;;;21.80;55.30;;;;;;5112079;28;20205;-55
2024/03/08 00:42:19;;;;;;;5.35;0.88;;;21.80;55.70;;;;;;5098951;28;20076;-51
2024/03/08 00:44:47;;;;;;;8.13;1.20;;;21.80;55.70;;;;;;5113878;28;20096;-57
2024/03/08 00:47:14;;;;;;;5.75;1.13;;;21.70;55.80;;;;;;5093561;28;20135;-59
2024/03/08 00:49:42;;;;;;;6.70;1.08;;;21.70;56.10;;;;;;5094055;28;20064;-56
2024/03/08 00:52:09;;;;;;;5.60;1.42;;;21.60;56.40;;;;;;5108412;28;20107;-59
2024/03/08 00:54:38;;;;;;;3.22;1.27;;;21.50;57.10;;;;;;5099838;28;20417;-53
2024/03/08 00:57:06;;;;;;;4.82;1.17;;;21.40;57.30;;;;;;5110212;28;20096;-54
2024/03/08 00:59:33;;;;;;;4.97;1.27;;;21.30;57.60;;;;;;5100101;28;20118;-59
2024/03/08 01:02:03;;;;;;;4.70;1.38;;;21.10;57.50;;;;;;5110164;28;20099;-60
2024/03/08 01:04:29;;;;;;;3.85;1.38;;;21.10;57.80;;;;;;5107156;28;20101;-56
2024/03/08 01:06:59;;;;;;;6.38;1.10;;;21.00;57.70;;;;;;5103066;28;20075;-60
2024/03/08 01:09:27;;;;;;;2.40;0.77;;;20.90;57.90;;;;;;5111242;28;20076;-57
2024/03/08 01:11:56;;;;;;;8.85;7.93;;;20.70;58.00;;;;;;5100047;28;20167;-59
2024/03/08 01:14:25;;;;;;;3.65;0.93;;;20.60;58.10;;;;;;5112896;28;20425;-58
2024/03/08 01:16:52;;;;;;;6.38;1.13;;;20.60;58.00;;;;;;5110468;28;20072;-55
2024/03/08 01:19:18;;;;;;;4.15;1.38;;;20.50;58.30;;;;;;5113654;28;20125;-57
2024/03/08 01:21:45;;;;;;;4.93;1.00;;;20.50;58.30;;;;;;5113706;28;20129;-61
2024/03/08 01:24:11;;;;;;;7.63;1.30;;;20.40;58.50;;;;;;5103188;28;20096;-54
2024/03/08 01:26:38;;;;;;;5.20;1.17;;;20.40;58.40;;;;;;5110972;28;20101;-57
2024/03/08 01:29:05;;;;;;;4.32;0.75;;;20.40;58.40;;;;;;5107974;28;20072;-56
2024/03/08 01:31:32;;;;;;;3.00;0.88;;;20.40;58.70;;;;;;5103370;28;20068;-58
2024/03/08 01:33:59;;;;;;;2.88;0.90;;;20.30;59.20;;;;;;5098336;28;20422;-55
2024/03/08 01:36:26;;;;;;;5.65;1.42;;;20.20;59.40;;;;;;5089559;28;20076;-58
2024/03/08 01:38:52;;;;;;;8.43;1.05;;;20.10;59.30;;;;;;5106163;28;20151;-56
2024/03/08 01:41:20;;;;;;;5.80;1.00;;;20.00;59.10;;;;;;5101461;28;20079;-52
2024/03/08 01:43:47;;;;;;;3.85;0.98;;;20.00;59.40;;;;;;5108610;28;21400;-57
2024/03/08 01:46:18;;;;;;;8.55;1.42;;;19.90;59.80;;;;;;5101250;28;20493;-53
2024/03/08 01:48:45;;;;;;;3.28;1.08;;;19.80;60.00;;;;;;5089643;28;20080;-54
2024/03/08 01:51:12;;;;;;;10.60;1.23;;;19.80;59.60;;;;;;5092117;28;20148;-55
2024/03/08 01:53:39;;;;;;;8.95;1.33;;;19.80;59.80;;;;;;5105495;28;20064;-56
2024/03/08 01:56:07;;;;;;;3.53;1.08;;;19.70;60.00;;;;;;5108244;28;20072;-54
2024/03/08 01:58:33;;;;;;;9.82;2.47;;;19.70;60.10;;;;;;5110360;28;20076;-51
2024/03/08 02:01:00;;;;;;;6.38;1.67;;;19.60;60.40;;;;;;5112415;27;20409;-55
2024/03/08 02:03:27;;;;;;;7.93;1.85;;;19.60;60.80;;;;;;5110603;28;20471;-61
2024/03/08 02:05:54;;;;;;;3.88;2.00;;;19.50;61.20;;;;;;5112228;28;20103;-59
2024/03/08 02:08:22;;;;;;;19.35;15.50;;;19.50;61.90;;;;;;5112588;28;20425;-56
2024/03/08 02:10:49;;;;;;;23.48;15.98;;;19.40;62.30;;;;;;5108868;28;20455;-58
2024/03/08 02:13:16;;;;;;;7.93;2.05;;;19.40;62.70;;;;;;5090870;28;20072;-57
2024/03/08 02:15:55;;;;;;;26.38;17.40;;;19.30;63.00;;;;;;5092103;28;20065;-57
2024/03/08 02:18:24;;;;;;;14.68;8.23;;;19.30;63.40;;;;;;5091603;28;20071;-55
2024/03/08 02:21:00;;;;;;;5.47;1.50;;;19.20;64.00;;;;;;5091903;28;20108;-60
2024/03/08 02:23:27;;;;;;;10.50;1.67;;;19.20;64.40;;;;;;5096983;28;20072;-55
2024/03/08 02:25:56;;;;;;;7.00;3.42;;;19.10;65.00;;;;;;5088067;28;20114;-54
2024/03/08 02:28:23;;;;;;;13.80;9.68;;;19.10;65.50;;;;;;5093758;28;20421;-54
2024/03/08 02:30:59;;;;;;;28.77;20.80;;;19.00;65.60;;;;;;5098666;28;20124;-54
2024/03/08 02:33:26;;;;;;;8.13;1.60;;;19.00;65.80;;;;;;5098817;28;20155;-52
2024/03/08 02:35:53;;;;;;;9.15;1.65;;;19.00;66.60;;;;;;5098969;28;20498;-51
2024/03/08 02:38:21;;;;;;;7.68;1.67;;;19.00;66.00;;;;;;5108817;27;20079;-51
2024/03/08 02:40:49;;;;;;;12.35;1.60;;;19.00;65.80;;;;;;5118758;27;20410;-52
2024/03/08 02:43:20;;;;;;;12.30;1.55;;;19.00;66.00;;;;;;5118801;27;20075;-53
2024/03/08 02:45:46;;;;;;;17.15;1.90;;;18.90;65.80;;;;;;5118705;27;20145;-54
2024/03/08 02:48:14;;;;;;;13.93;1.77;;;18.90;66.30;;;;;;5116473;27;20068;-52
2024/03/08 02:50:42;;;;;;;17.50;2.05;;;18.80;66.20;;;;;;5114057;28;20083;-53
2024/03/08 02:53:09;;;;;;;9.00;2.50;;;18.80;66.40;;;;;;5110757;27;20071;-55
2024/03/08 02:55:36;;;;;;;6.68;1.85;;;18.70;66.60;;;;;;5116937;27;20517;-53
2024/03/08 02:58:03;;;;;;;13.45;2.47;;;18.70;67.00;;;;;;5114701;27;20112;-55
2024/03/08 03:00:34;;;;;;;11.68;2.35;;;18.70;67.30;;;;;;5116845;27;20084;-54
2024/03/08 03:03:02;;;;;;;11.60;2.10;;;18.60;67.40;;;;;;5113603;27;20510;-52
2024/03/08 03:05:30;;;;;;;13.43;2.45;;;18.60;67.50;;;;;;5109854;28;20100;-53
2024/03/08 03:07:58;;;;;;;6.90;2.15;;;18.50;67.70;;;;;;5119960;27;20067;-54
2024/03/08 03:10:25;;;;;;;15.50;3.05;;;18.50;67.90;;;;;;5115168;28;20072;-54
2024/03/08 03:12:52;;;;;;;10.93;2.53;;;18.50;68.00;;;;;;5117228;27;20069;-55
2024/03/08 03:15:19;;;;;;;13.02;2.97;;;18.40;68.00;;;;;;5116393;27;20068;-56
2024/03/08 03:17:53;;;;;;;19.73;2.92;;;18.40;68.20;;;;;;5115965;27;20129;-51
2024/03/08 03:20:26;;;;;;;18.55;4.78;;;18.30;68.40;;;;;;5118200;27;20131;-57
2024/03/08 03:22:53;;;;;;;12.77;3.00;;;18.30;68.60;;;;;;5118517;27;20522;-58
2024/03/08 03:25:35;;;;;;;11.35;2.85;;;18.30;68.90;;;;;;5118448;27;20099;-54
2024/03/08 03:28:02;;;;;;;10.40;3.25;;;18.20;69.10;;;;;;5104957;27;20118;-53
2024/03/08 03:30:32;;;;;;;10.55;4.95;;;18.10;69.30;;;;;;5102186;28;20067;-56
2024/03/08 03:33:00;;;;;;;16.58;4.10;;;18.10;69.60;;;;;;5113684;27;20071;-57
2024/03/08 03:35:30;;;;;;;21.35;12.23;;;18.10;69.80;;;;;;5117681;28;20118;-53
2024/03/08 03:38:09;;;;;;;13.77;5.32;;;18.10;69.60;;;;;;5098091;27;20080;-50
2024/03/08 03:40:45;;;;;;;14.07;6.30;;;18.10;69.70;;;;;;5106566;28;20071;-54
2024/03/08 03:43:11;;;;;;;14.00;5.45;;;18.10;69.80;;;;;;5097565;28;20105;-53
2024/03/08 03:45:40;;;;;;;12.30;4.20;;;18.00;69.60;;;;;;5092611;28;20431;-56
2024/03/08 03:48:11;;;;;;;13.98;4.82;;;18.00;69.70;;;;;;5093182;28;20515;-56
2024/03/08 03:50:37;;;;;;;20.13;7.78;;;17.90;69.70;;;;;;5111631;28;20072;-56
2024/03/08 03:53:07;;;;;;;13.15;4.78;;;17.90;69.60;;;;;;5112805;27;20151;-54
2024/03/08 03:55:34;;;;;;;13.60;3.28;;;17.90;69.80;;;;;;5112216;28;20074;-55
2024/03/08 03:58:01;;;;;;;7.35;2.60;;;17.80;69.40;;;;;;5112451;28;20064;-55
2024/03/08 04:00:28;;;;;;;11.57;2.25;;;17.80;69.10;;;;;;5111933;28;20113;-53
2024/03/08 04:02:58;;;;;;;7.80;2.30;;;17.80;68.90;;;;;;5102821;28;20451;-54
2024/03/08 04:05:25;;;;;;;7.15;2.70;;;17.80;68.90;;;;;;5113148;28;20198;-58
2024/03/08 04:07:52;;;;;;;9.27;2.60;;;17.80;68.60;;;;;;5114859;28;20151;-54
2024/03/08 04:10:19;;;;;;;9.07;2.58;;;17.80;68.50;;;;;;5114634;28;20106;-58
2024/03/08 04:12:46;;;;;;;8.48;2.95;;;17.70;68.50;;;;;;5108298;28;20108;-58
2024/03/08 04:15:12;;;;;;;10.60;3.22;;;17.70;68.60;;;;;;5106743;28;20076;-57
2024/03/08 04:17:39;;;;;;;12.18;2.97;;;17.70;68.60;;;;;;5105025;28;20155;-56
2024/03/08 04:20:17;;;;;;;9.52;3.38;;;17.70;68.80;;;;;;5094768;28;20108;-56
2024/03/08 04:22:44;;;;;;;6.50;2.45;;;17.70;68.70;;;;;;5114494;28;20075;-57
2024/03/08 04:25:10;;;;;;;8.48;2.88;;;17.60;68.60;;;;;;5114004;28;20103;-56
2024/03/08 04:27:37;;;;;;;12.82;2.90;;;17.60;68.70;;;;;;5114364;28;20072;-56
2024/03/08 04:30:07;;;;;;;9.50;3.05;;;17.60;68.80;;;;;;5114240;28;20064;-57
2024/03/08 04:32:34;;;;;;;10.75;2.85;;;17.50;68.60;;;;;;5112618;28;20072;-54
2024/03/08 04:35:04;;;;;;;11.38;2.88;;;17.50;68.70;;;;;;5109431;28;20164;-57
2024/03/08 04:37:30;;;;;;;8.52;2.33;;;17.50;68.80;;;;;;5113829;28;20408;-57
2024/03/08 04:39:57;;;;;;;5.75;1.98;;;17.50;68.90;;;;;;5112670;28;20115;-56
2024/03/08 04:42:25;;;;;;;8.20;2.47;;;17.50;68.80;;;;;;5112262;28;20149;-56
2024/03/08 04:44:53;;;;;;;6.72;2.03;;;17.40;68.70;;;;;;5112142;28;20422;-57
2024/03/08 04:47:20;;;;;;;5.75;2.30;;;17.40;68.80;;;;;;5110457;28;20125;-56
2024/03/08 04:49:46;;;;;;;7.10;2.42;;;17.40;68.90;;;;;;5114036;28;20147;-60
2024/03/08 04:52:14;;;;;;;9.55;2.67;;;17.40;68.80;;;;;;5111715;28;20079;-58
2024/03/08 04:54:41;;;;;;;7.47;2.30;;;17.30;68.90;;;;;;5113653;27;20067;-56
2024/03/08 04:57:07;;;;;;;5.15;2.00;;;17.30;69.00;;;;;;5111604;28;20076;-54
2024/03/08 04:59:34;;;;;;;6.45;2.55;;;17.20;69.10;;;;;;5113476;28;20149;-56
2024/03/08 05:02:00;;;;;;;11.65;2.38;;;17.30;69.30;;;;;;5113580;28;20064;-57
2024/03/08 05:04:27;;;;;;;8.80;2.75;;;17.30;69.40;;;;;;5101646;28;20127;-56
2024/03/08 05:06:53;;;;;;;5.72;2.17;;;17.20;69.50;;;;;;5108325;28;20072;-57
2024/03/08 05:09:19;;;;;;;10.77;3.13;;;17.20;69.70;;;;;;5113398;28;20076;-55
2024/03/08 05:11:47;;;;;;;7.75;3.08;;;17.20;70.00;;;;;;5113655;28;20060;-57
2024/03/08 05:14:19;;;;;;;13.63;3.13;;;17.20;70.30;;;;;;5111348;28;20072;-55
2024/03/08 05:16:49;;;;;;;10.48;3.08;;;17.10;70.50;;;;;;5094559;28;20434;-59
2024/03/08 05:19:19;;;;;;;7.97;2.80;;;17.10;70.90;;;;;;5093047;28;20068;-56
2024/03/08 05:21:47;;;;;;;14.32;2.85;;;17.00;71.20;;;;;;5099459;28;20153;-57
2024/03/08 05:24:17;;;;;;;10.10;2.65;;;17.00;71.60;;;;;;5099390;28;20150;-56
2024/03/08 05:26:44;;;;;;;12.32;3.08;;;17.00;72.00;;;;;;5101749;27;20118;-57
2024/03/08 05:29:10;;;;;;;17.45;3.90;;;16.90;72.20;;;;;;5110965;28;20080;-54
2024/03/08 05:31:48;;;;;;;12.38;3.88;;;16.90;72.70;;;;;;5111097;28;20073;-58
2024/03/08 05:34:15;;;;;;;13.07;3.78;;;16.80;73.10;;;;;;5092542;28;20115;-57
2024/03/08 05:36:53;;;;;;;9.65;4.15;;;16.80;73.60;;;;;;5097229;28;20096;-57
2024/03/08 05:39:20;;;;;;;18.67;3.97;;;16.80;73.90;;;;;;5109453;28;20514;-60
2024/03/08 05:41:47;;;;;;;12.23;3.42;;;16.80;74.30;;;;;;5113005;28;20169;-53
2024/03/08 05:44:16;;;;;;;12.70;3.28;;;16.70;74.60;;;;;;5112773;28;20065;-58
2024/03/08 05:46:43;;;;;;;8.55;2.90;;;16.70;75.30;;;;;;5091275;28;20407;-60
2024/03/08 05:49:11;;;;;;;10.98;3.00;;;16.70;75.60;;;;;;5092345;28;20070;-59
2024/03/08 05:51:39;;;;;;;7.88;2.83;;;16.70;76.10;;;;;;5095405;28;20191;-59
2024/03/08 05:54:09;;;;;;;10.52;2.58;;;16.70;76.50;;;;;;5112706;28;20068;-57
2024/03/08 05:56:37;;;;;;;13.18;2.55;;;16.80;76.50;;;;;;5112275;28;20076;-59
2024/03/08 05:59:03;;;;;;;9.27;2.58;;;16.80;76.40;;;;;;5095692;28;20104;-58
2024/03/08 06:01:31;;;;;;;10.10;2.38;;;16.80;76.40;;;;;;5096733;28;20064;-58
2024/03/08 06:03:57;;;;;;;7.90;2.50;;;16.90;76.20;;;;;;5097429;28;20068;-66
2024/03/08 06:06:25;;;;;;;8.43;2.13;;;16.90;76.10;;;;;;5094953;28;20159;-59
2024/03/08 06:08:52;;;;;;;9.05;2.42;;;16.90;75.80;;;;;;5110526;28;20140;-57
2024/03/08 06:11:22;;;;;;;10.63;2.53;;;16.90;75.80;;;;;;5107560;28;20090;-58
2024/03/08 06:13:49;;;;;;;6.40;2.42;;;16.90;75.80;;;;;;5111576;28;20624;-58
2024/03/08 06:16:16;;;;;;;10.80;2.38;;;16.90;75.60;;;;;;5103318;28;20167;-58
2024/03/08 06:18:42;;;;;;;6.75;1.98;;;17.00;75.60;;;;;;5092120;28;20057;-59
2024/03/08 06:21:11;;;;;;;6.35;2.00;;;16.90;75.70;;;;;;5091804;28;20104;-57
2024/03/08 06:23:38;;;;;;;8.50;2.42;;;16.80;75.80;;;;;;5110951;28;20079;-56
2024/03/08 06:26:05;;;;;;;6.95;2.65;;;16.80;76.20;;;;;;5110347;28;20102;-59
2024/03/08 06:28:32;;;;;;;9.10;2.53;;;16.70;76.70;;;;;;5109848;28;20561;-56
2024/03/08 06:30:59;;;;;;;9.43;2.80;;;16.60;77.30;;;;;;5109891;28;20101;-58
2024/03/08 06:33:26;;;;;;;10.80;3.22;;;16.60;77.90;;;;;;5111832;28;20466;-59
2024/03/08 06:35:54;;;;;;;9.95;2.65;;;16.60;78.70;;;;;;5111907;28;20066;-59
2024/03/08 06:38:21;;;;;;;6.13;2.42;;;16.50;79.50;;;;;;5096820;28;20072;-58
2024/03/08 06:40:47;;;;;;;6.25;1.95;;;16.50;80.20;;;;;;5104674;28;20071;-59
2024/03/08 06:43:18;;;;;;;7.90;1.77;;;16.50;80.90;;;;;;5107164;28;20089;-58
2024/03/08 06:45:50;;;;;;;4.05;1.70;;;16.50;81.40;;;;;;5102298;28;20096;-59
2024/03/08 06:48:20;;;;;;;5.40;1.38;;;16.50;81.50;;;;;;5102537;28;20068;-59
2024/03/08 06:50:47;;;;;;;3.58;1.40;;;16.50;81.60;;;;;;5103334;28;20077;-59
2024/03/08 06:53:14;;;;;;;6.93;1.63;;;16.50;81.40;;;;;;5095373;28;20522;-59
2024/03/08 06:55:41;;;;;;;3.03;1.33;;;16.50;81.20;;;;;;5102264;28;20072;-59
2024/03/08 06:58:07;;;;;;;6.00;1.33;;;16.60;80.70;;;;;;5095780;28;20410;-59
2024/03/08 07:00:34;;;;;;;4.22;1.70;;;16.60;80.50;;;;;;5109141;28;20115;-59
2024/03/08 07:03:00;;;;;;;5.53;1.70;;;16.60;80.50;;;;;;5103058;28;20095;-59
2024/03/08 07:05:30;;;;;;;5.68;1.60;;;16.50;80.40;;;;;;5109338;28;20107;-60
2024/03/08 07:07:57;;;;;;;9.45;2.20;;;16.50;80.60;;;;;;5109487;28;20091;-59
2024/03/08 07:10:28;;;;;;;6.82;1.92;;;16.50;80.50;;;;;;5107144;28;20072;-61
2024/03/08 07:12:55;;;;;;;5.50;1.83;;;16.50;80.70;;;;;;5101175;28;20088;-58
2024/03/08 07:15:23;;;;;;;7.18;1.83;;;16.50;80.40;;;;;;5110612;28;20083;-59
2024/03/08 07:17:52;;;;;;;6.07;1.73;;;16.50;80.10;;;;;;5107448;28;20521;-60
2024/03/08 07:20:19;;;;;;;6.72;1.80;;;16.50;79.80;;;;;;5099039;27;20153;-60
2024/03/08 07:22:51;;;;;;;10.88;1.83;;;16.60;79.60;;;;;;5110928;28;20072;-61
2024/03/08 07:25:21;;;;;;;5.32;1.67;;;16.50;79.70;;;;;;5109918;28;20546;-60
2024/03/08 07:27:54;;;;;;;5.95;1.65;;;16.50;79.60;;;;;;5111850;28;20076;-59
2024/03/08 07:33:11;;;;;;;7.73;1.90;;;16.60;79.50;;;;;;5110878;28;20764;-59
2024/03/08 07:35:42;;;;;;;5.88;1.92;;;16.60;79.30;;;;;;5108045;28;20586;-59
2024/03/08 07:38:12;;;;;;;6.18;1.90;;;16.60;79.50;;;;;;5108742;28;20091;-59
2024/03/08 07:40:40;;;;;;;6.72;2.10;;;16.60;79.40;;;;;;5110708;27;20529;-59
2024/03/08 07:43:10;;;;;;;8.40;1.85;;;16.60;79.50;;;;;;5096163;28;20068;-59
2024/03/08 07:45:40;;;;;;;6.50;1.67;;;16.60;79.70;;;;;;5111353;28;20100;-56
2024/03/08 07:48:10;;;;;;;6.60;1.70;;;16.60;79.60;;;;;;5098126;28;20065;-58
2024/03/08 07:50:40;;;;;;;6.40;1.70;;;16.60;79.80;;;;;;5096324;28;20168;-59
2024/03/08 07:53:08;;;;;;;6.35;1.90;;;16.60;79.40;;;;;;5111193;28;20083;-60
2024/03/08 07:55:35;;;;;;;8.90;2.03;;;16.60;79.10;;;;;;5096094;28;20097;-60
2024/03/08 07:58:02;;;;;;;5.93;1.70;;;16.60;79.20;;;;;;5107003;28;20074;-60
2024/03/08 08:00:31;;;;;;;4.32;1.83;;;16.60;79.40;;;;;;5110653;28;20425;-60
2024/03/08 08:02:57;;;;;;;3.63;1.40;;;16.70;79.20;;;;;;5110336;28;20064;-60
2024/03/08 08:05:24;;;;;;;6.35;1.92;;;16.60;78.80;;;;;;5101426;28;20105;-59
2024/03/08 08:07:52;;;;;;;4.88;1.85;;;16.60;78.70;;;;;;5093366;28;20086;-59
2024/03/08 08:10:22;;;;;;;4.35;1.67;;;16.60;78.80;;;;;;5101081;28;20076;-59
2024/03/08 08:12:49;;;;;;;6.85;1.92;;;16.60;78.90;;;;;;5110378;28;20072;-59
2024/03/08 08:15:16;;;;;;;6.13;2.15;;;16.60;78.70;;;;;;5101913;28;20072;-59
2024/03/08 08:17:43;;;;;;;3.40;1.50;;;16.60;78.80;;;;;;5105776;28;20079;-60
2024/03/08 08:20:11;;;;;;;6.32;2.22;;;16.60;78.70;;;;;;5111530;28;20502;-59
2024/03/08 08:22:42;;;;;;;8.55;2.42;;;16.70;78.40;;;;;;5111085;28;20155;-59
2024/03/08 08:25:15;;;;;;;5.38;2.00;;;16.70;78.00;;;;;;5110767;27;20199;-59
2024/03/08 08:27:45;;;;;;;4.75;1.73;;;16.60;78.00;;;;;;5101170;28;20438;-60
2024/03/08 08:30:12;;;;;;;4.35;1.70;;;16.60;77.60;;;;;;5109061;28;20517;-59
2024/03/08 08:32:39;;;;;;;6.03;1.77;;;16.60;77.70;;;;;;5108592;28;20100;-59
2024/03/08 08:35:09;;;;;;;4.50;1.70;;;16.70;77.90;;;;;;5104872;28;20077;-59
2024/03/08 08:37:38;;;;;;;8.63;2.20;;;16.60;78.10;;;;;;5099799;28;20174;-60
2024/03/08 08:40:08;;;;;;;5.63;1.80;;;16.60;78.40;;;;;;5107719;28;20101;-60
2024/03/08 08:42:35;;;;;;;6.80;1.52;;;16.50;79.20;;;;;;5110197;28;20103;-59
2024/03/08 08:45:02;;;;;;;5.88;1.73;;;16.30;80.20;;;;;;5107905;28;20191;-59
2024/03/08 08:47:28;;;;;;;5.95;1.77;;;16.20;80.60;;;;;;5108244;27;20534;-58
2024/03/08 08:49:55;;;;;;;5.35;2.03;;;16.10;81.10;;;;;;5101841;28;20071;-59
2024/03/08 08:52:21;;;;;;;5.10;1.42;;;16.10;81.70;;;;;;5107750;28;20414;-59
2024/03/08 08:54:49;;;;;;;4.60;1.70;;;16.00;82.00;;;;;;5107226;28;20133;-59
2024/03/08 08:57:16;;;;;;;5.53;2.00;;;16.00;82.50;;;;;;5106745;28;20072;-59
2024/03/08 08:59:42;;;;;;;8.77;2.05;;;16.00;82.80;;;;;;5107274;28;20108;-58
2024/03/08 09:02:09;;;;;;;4.47;1.40;;;15.90;83.00;;;;;;5109677;28;20068;-59
2024/03/08 09:04:35;;;;;;;4.68;1.48;;;15.90;83.40;;;;;;5102581;28;20178;-59
2024/03/08 09:07:02;;;;;;;6.90;1.52;;;15.80;83.80;;;;;;5098655;28;20065;-59
2024/03/08 09:09:29;;;;;;;4.57;1.67;;;15.80;84.10;;;;;;5095547;28;20072;-59
2024/03/08 09:11:56;;;;;;;8.88;2.38;;;15.80;84.50;;;;;;5094870;28;20076;-58
2024/03/08 09:14:22;;;;;;;6.93;1.52;;;15.70;84.80;;;;;;5097370;28;20088;-59
2024/03/08 09:16:48;;;;;;;4.68;1.85;;;15.70;84.80;;;;;;5109781;28;20068;-59
2024/03/08 09:19:15;;;;;;;5.28;1.65;;;15.70;85.00;;;;;;5110101;28;20106;-59
2024/03/08 09:21:42;;;;;;;3.28;1.30;;;15.60;85.20;;;;;;5101267;28;20104;-60
2024/03/08 09:24:08;;;;;;;5.15;1.58;;;15.60;85.50;;;;;;5101678;28;20198;-60
2024/03/08 09:26:35;;;;;;;8.77;1.90;;;15.60;85.80;;;;;;5105989;28;20118;-59
2024/03/08 09:29:01;;;;;;;2.58;1.30;;;15.60;85.90;;;;;;5110013;28;20074;-60
2024/03/08 09:31:28;;;;;;;3.78;1.40;;;15.60;85.90;;;;;;5094412;28;20072;-59
2024/03/08 09:33:54;;;;;;;3.05;1.33;;;15.60;86.10;;;;;;5108314;28;20094;-59
2024/03/08 09:36:21;;;;;;;8.20;1.80;;;15.60;86.00;;;;;;5109794;28;20070;-59
2024/03/08 09:38:49;;;;;;;4.78;1.63;;;15.50;86.20;;;;;;5108547;28;20526;-59
2024/03/08 09:41:16;;;;;;;3.70;2.00;;;15.50;86.20;;;;;;5107330;28;20145;-61
2024/03/08 09:43:42;;;;;;;3.70;1.30;;;15.50;86.40;;;;;;5108231;28;20070;-58
2024/03/08 09:46:10;;;;;;;5.43;1.80;;;15.40;86.60;;;;;;5102074;28;20088;-60
2024/03/08 09:48:38;;;;;;;5.60;1.70;;;15.40;86.80;;;;;;5100322;28;20064;-60
2024/03/08 09:51:05;;;;;;;6.47;1.75;;;15.40;87.10;;;;;;5109493;28;20080;-60
2024/03/08 09:53:32;;;;;;;6.07;1.80;;;15.40;87.50;;;;;;5107131;28;20079;-60
2024/03/08 09:55:59;;;;;;;5.35;1.73;;;15.40;87.50;;;;;;5109514;28;20090;-60
2024/03/08 10:01:06;;;;;;;7.80;1.80;;;15.30;87.20;;;;;;5102025;28;20090;-60
2024/03/08 10:03:33;;;;;;;4.93;2.00;;;15.20;87.40;;;;;;5104627;28;20079;-60
2024/03/08 10:06:00;;;;;;;31.85;18.15;;;15.10;87.50;;;;;;5099292;28;20483;-60
2024/03/08 10:08:29;;;;;;;3.95;1.67;;;15.10;87.70;;;;;;5108780;28;20182;-60
2024/03/08 10:10:59;;;;;;;3.53;1.58;;;15.10;87.90;;;;;;5104046;28;20079;-59
2024/03/08 10:13:30;;;;;;;6.95;1.65;;;15.00;87.70;;;;;;5108488;28;20611;-59
2024/03/08 10:15:56;;;;;;;11.85;1.45;;;15.10;87.80;;;;;;5105054;28;20056;-59
2024/03/08 10:18:22;;;;;;;3.78;1.65;;;15.00;88.10;;;;;;5108403;28;20072;-59
2024/03/08 10:21:08;;;;;;;5.63;1.20;;;15.00;87.90;;;;;;5108674;28;20111;-60
2024/03/08 10:23:35;;;;;;;4.28;1.60;;;15.00;88.10;;;;;;5108535;28;20075;-60
2024/03/08 10:26:14;;;;;;;2.50;1.42;;;14.90;87.90;;;;;;5108930;28;20088;-59
2024/03/08 10:28:44;;;;;;;5.15;1.73;;;14.90;88.20;;;;;;5105385;28;20181;-59
2024/03/08 10:31:11;;;;;;;6.90;2.15;;;14.90;88.20;;;;;;5095192;28;20518;-59
2024/03/08 10:33:39;;;;;;;6.38;1.70;;;14.90;88.50;;;;;;5106967;28;20065;-59
2024/03/08 10:36:09;;;;;;;9.95;2.20;;;14.90;88.60;;;;;;5107801;28;20072;-60
2024/03/08 10:38:46;;;;;;;8.77;1.58;;;14.90;88.90;;;;;;5101531;28;20064;-59
2024/03/08 10:41:13;;;;;;;3.80;1.27;;;14.80;89.30;;;;;;5105151;28;20080;-60
2024/03/08 10:44:26;;;;;;;6.00;1.95;;;14.80;89.60;;;;;;5108668;28;20121;-60
2024/03/08 10:47:26;;;;;;;5.38;1.60;;;14.80;89.80;;;;;;5044685;28;20082;-60
2024/03/08 10:50:03;;;;;;;5.38;1.55;;;14.70;90.10;;;;;;5047210;28;20073;-60
2024/03/08 10:52:31;;;;;;;2.83;1.45;;;14.70;90.30;;;;;;5096204;28;20567;-59
2024/03/08 10:54:59;;;;;;;5.57;1.40;;;14.80;90.40;;;;;;5109327;28;20072;-59
2024/03/08 10:57:27;;;;;;;3.75;1.40;;;14.80;90.50;;;;;;5111337;28;20595;-60
2024/03/08 10:59:54;;;;;;;7.25;1.58;;;14.70;90.40;;;;;;5113245;28;20079;-58
2024/03/08 11:02:20;;;;;;;5.45;1.70;;;14.70;90.70;;;;;;5112176;28;20079;-59
2024/03/08 11:04:49;;;;;;;4.63;1.73;;;14.60;90.80;;;;;;5099536;28;20188;-59
2024/03/08 11:07:19;;;;;;;6.18;1.65;;;14.60;91.00;;;;;;5112351;28;20090;-58
2024/03/08 11:09:48;;;;;;;5.93;1.92;;;14.60;91.30;;;;;;5109145;28;20121;-59
2024/03/08 11:12:29;;;;;;;4.97;1.63;;;14.50;91.50;;;;;;5113545;28;20502;-59
2024/03/08 11:14:59;;;;;;;4.63;1.70;;;14.50;91.70;;;;;;5108006;28;20521;-59
2024/03/08 11:17:31;;;;;;;5.97;1.90;;;14.40;92.00;;;;;;5112257;28;20078;-59
2024/03/08 11:20:01;;;;;;;3.45;1.45;;;14.30;92.40;;;;;;5112451;28;20080;-59
2024/03/08 11:22:33;;;;;;;4.10;1.50;;;14.30;92.60;;;;;;5104492;28;20418;-59
2024/03/08 11:25:03;;;;;;;6.47;1.38;;;14.20;92.70;;;;;;5107738;28;20115;-59
2024/03/08 11:27:31;;;;;;;6.40;2.00;;;14.20;92.80;;;;;;5112611;28;20497;-59
2024/03/08 11:30:10;;;;;;;6.13;1.83;;;14.20;92.90;;;;;;5110769;28;20109;-58
2024/03/08 11:32:37;;;;;;;7.43;1.80;;;14.20;93.00;;;;;;5109816;28;20072;-59
2024/03/08 11:35:18;;;;;;;9.10;1.55;;;14.20;93.00;;;;;;5099180;28;20064;-59
2024/03/08 11:37:45;;;;;;;6.40;1.90;;;14.20;93.10;;;;;;5103477;28;20620;-59
2024/03/08 11:40:16;;;;;;;5.97;1.90;;;14.10;93.20;;;;;;5090898;28;20186;-59
2024/03/08 11:42:51;;;;;;;4.60;1.45;;;14.10;93.30;;;;;;5103946;28;20083;-59
2024/03/08 11:45:21;;;;;;;11.10;2.30;;;14.10;93.60;;;;;;5094225;28;20483;-59
2024/03/08 11:47:48;;;;;;;3.75;1.52;;;14.10;93.70;;;;;;5112183;28;20072;-59
2024/03/08 11:50:15;;;;;;;7.93;2.10;;;14.10;93.50;;;;;;5109488;28;20076;-60
2024/03/08 11:52:44;;;;;;;4.28;1.58;;;14.10;93.40;;;;;;5107138;28;20069;-60
2024/03/08 11:55:12;;;;;;;5.90;1.95;;;14.10;93.70;;;;;;5103574;28;20099;-60
2024/03/08 11:57:39;;;;;;;4.15;1.55;;;14.10;93.60;;;;;;5098970;28;20079;-61
2024/03/08 12:00:06;;;;;;;5.47;1.73;;;14.10;93.40;;;;;;5110654;28;20076;-60
2024/03/08 12:02:38;;;;;;;5.82;1.80;;;14.10;93.30;;;;;;5104462;28;20079;-60
2024/03/08 12:05:12;;;;;;;4.68;1.88;;;14.00;93.30;;;;;;5108107;28;20099;-60
2024/03/08 12:07:40;;;;;;;7.53;1.52;;;14.00;93.40;;;;;;5110572;28;20092;-59
2024/03/08 12:10:21;;;;;;;6.75;1.80;;;14.00;93.30;;;;;;5110179;28;20072;-60
2024/03/08 12:12:51;;;;;;;6.00;1.60;;;14.00;93.40;;;;;;5112190;28;20103;-59
2024/03/08 12:15:19;;;;;;;4.32;1.88;;;14.00;93.40;;;;;;5110009;28;20514;-59
2024/03/08 12:17:54;;;;;;;5.85;1.77;;;14.00;93.50;;;;;;5111824;28;20068;-59
2024/03/08 12:20:26;;;;;;;3.55;1.50;;;14.00;93.60;;;;;;5105198;28;20544;-60
2024/03/08 12:22:56;;;;;;;5.15;1.52;;;14.00;93.50;;;;;;5100689;28;20092;-59
2024/03/08 12:25:26;;;;;;;3.88;1.67;;;14.00;93.60;;;;;;5110700;28;20103;-59
2024/03/08 12:27:55;;;;;;;5.43;1.75;;;14.00;93.60;;;;;;5111614;28;20079;-60
2024/03/08 12:30:26;;;;;;;5.13;1.38;;;14.00;93.50;;;;;;5104621;28;20119;-60
2024/03/08 12:33:00;;;;;;;2.15;1.33;;;14.00;93.60;;;;;;5104880;28;20095;-59
2024/03/08 12:35:28;;;;;;;7.90;1.70;;;14.00;93.60;;;;;;5092490;28;20118;-59
2024/03/08 12:37:57;;;;;;;8.00;1.63;;;14.00;93.40;;;;;;5108837;28;20068;-59
2024/03/08 12:40:40;;;;;;;6.18;1.52;;;14.10;93.30;;;;;;5111096;28;20076;-58
2024/03/08 12:43:06;;;;;;;6.50;1.75;;;14.10;93.40;;;;;;5111094;28;20100;-59
2024/03/08 12:45:33;;;;;;;5.55;1.50;;;14.10;93.30;;;;;;5105624;28;20104;-58
2024/03/08 12:47:59;;;;;;;5.68;1.52;;;14.10;93.30;;;;;;5104755;28;20071;-59
2024/03/08 12:50:26;;;;;;;4.95;1.42;;;14.10;93.20;;;;;;5104637;28;20151;-61
2024/03/08 12:52:52;;;;;;;3.85;1.40;;;14.10;93.10;;;;;;5110996;28;20071;-59
2024/03/08 12:55:20;;;;;;;6.53;1.58;;;14.10;93.00;;;;;;5111189;28;20124;-59
2024/03/08 12:57:46;;;;;;;4.95;1.33;;;14.20;93.00;;;;;;5109880;28;20425;-59